Eiwa Maru1 — DSPT7 — position and weather

sailwx.info

Track history (hours):
 
Tides and Currents Weather Stations Pressure Air Temp Water Temp Dewpoint Dewpoint Depression Visibility Wind Speed Wind Dir Waves Ship Positions

Eiwa Maru1

Last reported at 2018-Feb-24 07:17 UTC. Time now 2018-Feb-24 23:37 UTC.
Position N 34°24' E 130°27'.

Length 65 m; draft 3 m.

Type: Tanker. MMSI: 441447000.

Date/timePositionNaut miles runAvg speedWind from/ knotsBaromVisibWave heightAir tempDewpointWater temp
2018-Feb-24 07:17N 34°24' E 130°27'3 9.3
2018-Feb-24 07:00N 34°22' E 130°28'5 9.1
2018-Feb-24 06:30N 34°19' E 130°32'5 9.3
2018-Feb-24 06:00N 34°15' E 130°36'5 9.3
2018-Feb-24 05:30N 34°11' E 130°39'4 9.2
2018-Feb-24 05:00N 34°08' E 130°43'5 9.6
2018-Feb-24 04:30N 34°04' E 130°47'5 9.4
2018-Feb-24 04:00N 34°01' E 130°50'4 8.8
2018-Feb-24 03:30N 33°57' E 130°52'3 6.4
2018-Feb-24 03:00N 33°56' E 130°56'4 8.8
2018-Feb-24 02:31N 33°59' E 130°60'5 9.4
2018-Feb-24 02:00N 33°57' E 131°05'5 9.9
2018-Feb-24 01:30N 33°54' E 131°09'510.1
2018-Feb-24 01:00N 33°52' E 131°15'5 9.9
2018-Feb-24 00:30N 33°51' E 131°21'10 9.7
2018-Feb-23 23:30N 33°49' E 131°32'5 9.5
2018-Feb-23 23:00N 33°48' E 131°38'5 9.5
2018-Feb-23 22:30N 33°47' E 131°44'5 9.4
2018-Feb-23 22:00N 33°47' E 131°49'5 9.4
2018-Feb-23 21:30N 33°46' E 131°55'5 9.6
2018-Feb-23 20:59N 33°46' E 132°01'6 9.7
2018-Feb-23 20:20N 33°48' E 132°08'4 9.8
2018-Feb-23 19:55N 33°50' E 132°12'4 9.6
2018-Feb-23 19:29N 33°50' E 132°17'13 9.2
2018-Feb-23 18:07N 33°53' E 132°32'2 9.0
2018-Feb-23 17:55N 33°54' E 132°34'4 8.8
2018-Feb-23 17:29N 33°55' E 132°38'4 7.9
2018-Feb-23 16:59N 33°57' E 132°42'4 8.1
2018-Feb-23 16:30N 34°01' E 132°45'87 8.0
2018-Feb-23 05:39N 34°23' E 134°26'1 9.2
2018-Feb-23 05:29N 34°22' E 134°28'4 9.2
2018-Feb-23 05:01N 34°19' E 134°32'5 9.5
2018-Feb-23 04:30N 34°16' E 134°36'5 9.4
2018-Feb-23 04:00N 34°13' E 134°40'5 9.8
2018-Feb-23 03:29N 34°09' E 134°44'4 9.1
2018-Feb-23 03:00N 34°06' E 134°48'7 8.9
2018-Feb-23 02:16N 34°01' E 134°53'2 9.1
2018-Feb-23 02:00N 33°60' E 134°55'5 9.3
2018-Feb-23 01:27N 33°56' E 134°60'101 5.9
2018-Feb-22 08:27N 34°40' E 136°50'4 9.6
2018-Feb-22 08:00N 34°44' E 136°47'5 9.3
2018-Feb-22 07:30N 34°48' E 136°45'5 9.4
2018-Feb-22 07:00N 34°52' E 136°43'5 9.2
2018-Feb-22 06:31N 34°57' E 136°41'2 4.2
2018-Feb-22 05:59N 34°59' E 136°40'0 0.0
2018-Feb-22 05:29N 34°59' E 136°40'0 0.0
2018-Feb-22 04:56N 34°59' E 136°40'0 0.0
2018-Feb-22 04:26N 34°59' E 136°40'0 0.0
2018-Feb-22 03:44N 34°59' E 136°40'0 0.0
2018-Feb-22 03:25N 34°59' E 136°40'2 4.1
2018-Feb-22 03:00N 34°58' E 136°42'5 9.0
2018-Feb-22 02:30N 34°54' E 136°45'5 9.2
2018-Feb-22 02:00N 34°49' E 136°46'5 9.2
2018-Feb-22 01:30N 34°45' E 136°48'17 9.0
2018-Feb-21 23:36N 34°33' E 137°03'2 9.4
2018-Feb-21 23:25N 34°33' E 137°05'4 9.4
2018-Feb-21 22:59N 34°34' E 137°10'7 9.3
2018-Feb-21 22:15N 34°35' E 137°18'48 8.6
2018-Feb-21 16:41N 34°34' E 138°16'5 8.6
2018-Feb-21 16:09N 34°34' E 138°21'1 8.6
2018-Feb-21 15:59N 34°34' E 138°23'6 8.4
2018-Feb-21 15:14N 34°34' E 138°31'2 7.7
2018-Feb-21 14:59N 34°34' E 138°33'4 7.9
2018-Feb-21 14:30N 34°35' E 138°38'6 7.1
2018-Feb-21 13:41N 34°35' E 138°45'2 7.7
2018-Feb-21 13:28N 34°35' E 138°47'4 7.5
2018-Feb-21 12:59N 34°35' E 138°51'3 6.2
2018-Feb-21 12:26N 34°35' E 138°56'4 7.5
2018-Feb-21 11:55N 34°37' E 138°60'4 9.1
2018-Feb-21 11:30N 34°39' E 139°03'7 9.6
2018-Feb-21 10:47N 34°44' E 139°09'3 9.0
2018-Feb-21 10:28N 34°46' E 139°12'4 8.5
2018-Feb-21 10:00N 34°49' E 139°15'4 8.3
2018-Feb-21 09:30N 34°52' E 139°19'5 7.9
2018-Feb-21 08:50N 34°56' E 139°23'5 7.9
2018-Feb-21 08:11N 34°59' E 139°28'3 8.1
2018-Feb-21 07:47N 35°01' E 139°30'2 8.2
2018-Feb-21 07:31N 35°03' E 139°33'4 8.5
2018-Feb-21 07:00N 35°05' E 139°37'5 8.9
2018-Feb-21 06:29N 35°08' E 139°42'4 9.2
2018-Feb-21 06:00N 35°11' E 139°45'510.1
2018-Feb-21 05:30N 35°16' E 139°46'510.2
2018-Feb-21 05:00N 35°20' E 139°42'510.0
2018-Feb-21 04:30N 35°25' E 139°43'4 8.2
2018-Feb-21 04:00N 35°29' E 139°43'0 0.3
2018-Feb-21 03:26N 35°29' E 139°42'0 0.0
2018-Feb-21 02:59N 35°29' E 139°42'0 0.0
2018-Feb-21 02:29N 35°29' E 139°42'0 0.0
2018-Feb-21 01:59N 35°29' E 139°42'0 0.0
2018-Feb-21 01:26N 35°29' E 139°42'0 0.0
2018-Feb-21 00:56N 35°29' E 139°42'0 0.0
2018-Feb-21 00:29N 35°29' E 139°42'0 0.0
2018-Feb-20 23:59N 35°29' E 139°42'0 0.1
2018-Feb-20 23:30N 35°29' E 139°43'2 3.7
2018-Feb-20 23:00N 35°27' E 139°43'1 2.0
2018-Feb-20 22:29N 35°26' E 139°43'0 0.0
2018-Feb-20 21:59N 35°26' E 139°43'0 0.1
2018-Feb-20 21:29N 35°26' E 139°43'0 0.0
2018-Feb-20 20:53N 35°26' E 139°43'0 0.0
2018-Feb-20 20:29N 35°26' E 139°43'0 0.0
2018-Feb-20 19:59N 35°26' E 139°43'0 0.0
2018-Feb-20 19:29N 35°26' E 139°43'0 0.0
2018-Feb-20 18:59N 35°26' E 139°43'0 0.0
2018-Feb-20 18:29N 35°26' E 139°43'0 0.0
2018-Feb-20 17:59N 35°26' E 139°43'0 0.0
2018-Feb-20 17:29N 35°26' E 139°43'0 0.0
2018-Feb-20 16:59N 35°26' E 139°43'0 0.0
2018-Feb-20 16:26N 35°26' E 139°43'0 0.0
2018-Feb-20 15:59N 35°26' E 139°43'0 0.0
2018-Feb-20 15:29N 35°26' E 139°43'0 0.0
2018-Feb-20 14:50N 35°26' E 139°43'0 0.0
2018-Feb-20 14:29N 35°26' E 139°43'0 0.0
2018-Feb-20 13:59N 35°26' E 139°43'0 0.1
2018-Feb-20 13:23N 35°26' E 139°43'0 0.0
2018-Feb-20 12:59N 35°26' E 139°43'0 0.0
2018-Feb-20 12:29N 35°26' E 139°43'0 0.0
2018-Feb-20 11:59N 35°26' E 139°43'0 0.0
2018-Feb-20 11:29N 35°26' E 139°43'0 0.0
2018-Feb-20 10:59N 35°26' E 139°43'0 0.0
2018-Feb-20 10:29N 35°26' E 139°43'0 0.0
2018-Feb-20 09:59N 35°26' E 139°43'0 0.1
2018-Feb-20 09:29N 35°26' E 139°43'0 0.3
2018-Feb-20 09:00N 35°26' E 139°43'3 7.0
2018-Feb-20 08:31N 35°24' E 139°46'510.3
2018-Feb-20 08:00N 35°19' E 139°44'510.0
2018-Feb-20 07:30N 35°15' E 139°47'510.1
2018-Feb-20 07:00N 35°10' E 139°46'7 9.8
2018-Feb-20 06:15N 35°04' E 139°41'3 9.6
2018-Feb-20 05:59N 35°02' E 139°38'5 9.7
2018-Feb-20 05:26N 34°59' E 139°33'13 9.7
2018-Feb-20 04:04N 34°50' E 139°21'1 9.5
2018-Feb-20 03:59N 34°49' E 139°21'5 9.8
2018-Feb-20 03:29N 34°46' E 139°16'810.2
2018-Feb-20 02:40N 34°41' E 139°08'2 9.4
2018-Feb-20 02:30N 34°40' E 139°07'6 8.7
2018-Feb-20 01:47N 34°37' E 139°00'4 8.8
2018-Feb-20 01:19N 34°35' E 138°56'11 9.1
2018-Feb-20 00:08N 34°35' E 138°43'3 9.8
2018-Feb-19 23:52N 34°35' E 138°40'4 9.7
2018-Feb-19 23:30N 34°35' E 138°35'5 9.8
2018-Feb-19 22:58N 34°35' E 138°29'5 9.5
2018-Feb-19 22:24N 34°34' E 138°22'4 9.6
2018-Feb-19 22:00N 34°34' E 138°18'72 9.7
2018-Feb-19 14:30N 34°40' E 136°50'510.5
2018-Feb-19 14:01N 34°45' E 136°47'510.0
2018-Feb-19 13:31N 34°49' E 136°45'510.3
2018-Feb-19 13:00N 34°54' E 136°46'510.0
2018-Feb-19 12:30N 34°59' E 136°49'5 9.8
2018-Feb-19 12:00N 35°03' E 136°52'0 0.3
2018-Feb-19 11:29N 35°03' E 136°52'0 0.0
2018-Feb-19 10:59N 35°03' E 136°52'0 0.0
2018-Feb-19 10:29N 35°03' E 136°52'0 0.0
2018-Feb-19 09:59N 35°03' E 136°52'0 0.0
2018-Feb-19 09:29N 35°03' E 136°52'0 0.0
2018-Feb-19 08:59N 35°03' E 136°52'0 0.0
2018-Feb-19 08:23N 35°03' E 136°52'0 0.0
2018-Feb-19 07:59N 35°03' E 136°52'0 0.0
2018-Feb-19 07:29N 35°03' E 136°52'0 0.0
2018-Feb-19 06:59N 35°03' E 136°52'0 0.0
2018-Feb-19 06:29N 35°03' E 136°52'0 0.0
2018-Feb-19 05:59N 35°03' E 136°52'0 0.0
2018-Feb-19 05:29N 35°03' E 136°52'3 5.5
2018-Feb-19 05:00N 35°01' E 136°50'3 5.8
2018-Feb-19 04:30N 34°59' E 136°48'0 0.0
2018-Feb-19 03:59N 34°59' E 136°48'0 0.0
2018-Feb-19 03:29N 34°59' E 136°48'0 0.0
2018-Feb-19 02:59N 34°59' E 136°48'0 0.0
2018-Feb-19 02:29N 34°59' E 136°48'0 0.0
2018-Feb-19 01:59N 34°59' E 136°48'0 0.0
2018-Feb-19 01:29N 34°59' E 136°48'0 0.0
2018-Feb-19 00:59N 34°59' E 136°48'0 0.0
2018-Feb-19 00:29N 34°59' E 136°48'0 0.0
2018-Feb-18 23:59N 34°59' E 136°48'0 0.0
2018-Feb-18 23:29N 34°59' E 136°48'0 0.0
2018-Feb-18 22:59N 34°59' E 136°48'0 0.0
2018-Feb-18 22:28N 34°59' E 136°48'3 6.7
2018-Feb-18 21:59N 34°56' E 136°46'4 9.1
2018-Feb-18 21:30N 34°52' E 136°46'5 9.2
2018-Feb-18 21:00N 34°47' E 136°47'5 9.1
2018-Feb-18 20:30N 34°43' E 136°49'  
2018-Feb-14 15:35N 30°59' E 122°32'1 9.1
2018-Feb-14 15:29N 30°59' E 122°31'5 8.6
2018-Feb-14 14:53N 31°00' E 122°25'3 8.2
2018-Feb-14 14:28N 31°01' E 122°22'8 7.6
2018-Feb-14 13:27N 31°03' E 122°13'5 6.9
2018-Feb-14 12:39N 31°03' E 122°06'3 7.1
2018-Feb-14 12:14N 31°04' E 122°03'2 7.7
2018-Feb-14 11:55N 31°05' E 122°00'4 8.6
2018-Feb-14 11:30N 31°07' E 121°57'3111.3
2018-Feb-14 08:48N 31°26' E 121°29'310.3
2018-Feb-14 08:30N 31°28' E 121°27'510.0
2018-Feb-14 08:01N 31°31' E 121°22'5 9.6
2018-Feb-14 07:28N 31°35' E 121°18'  
Track history (hours):
 
Tides and Currents Weather Stations Pressure Air Temp Water Temp Dewpoint Dewpoint Depression Visibility Wind Speed Wind Dir Waves Ship Positions

Eiwa Maru1

Last reported at 2018-Feb-24 07:17 UTC. Time now 2018-Feb-24 23:37 UTC.
Position N 34°24' E 130°27'.

Length 65 m; draft 3 m.

Type: Tanker. MMSI: 441447000.

Date/timePositionNaut miles runAvg speedWind from/ knotsBaromVisibWave heightAir tempDewpointWater temp
2018-Feb-24 07:17N 34°24' E 130°27'3 9.3
2018-Feb-24 07:00N 34°22' E 130°28'5 9.1
2018-Feb-24 06:30N 34°19' E 130°32'5 9.3
2018-Feb-24 06:00N 34°15' E 130°36'5 9.3
2018-Feb-24 05:30N 34°11' E 130°39'4 9.2
2018-Feb-24 05:00N 34°08' E 130°43'5 9.6
2018-Feb-24 04:30N 34°04' E 130°47'5 9.4
2018-Feb-24 04:00N 34°01' E 130°50'4 8.8
2018-Feb-24 03:30N 33°57' E 130°52'3 6.4
2018-Feb-24 03:00N 33°56' E 130°56'4 8.8
2018-Feb-24 02:31N 33°59' E 130°60'5 9.4
2018-Feb-24 02:00N 33°57' E 131°05'5 9.9
2018-Feb-24 01:30N 33°54' E 131°09'510.1
2018-Feb-24 01:00N 33°52' E 131°15'5 9.9
2018-Feb-24 00:30N 33°51' E 131°21'10 9.7
2018-Feb-23 23:30N 33°49' E 131°32'5 9.5
2018-Feb-23 23:00N 33°48' E 131°38'5 9.5
2018-Feb-23 22:30N 33°47' E 131°44'5 9.4
2018-Feb-23 22:00N 33°47' E 131°49'5 9.4
2018-Feb-23 21:30N 33°46' E 131°55'5 9.6
2018-Feb-23 20:59N 33°46' E 132°01'6 9.7
2018-Feb-23 20:20N 33°48' E 132°08'4 9.8
2018-Feb-23 19:55N 33°50' E 132°12'4 9.6
2018-Feb-23 19:29N 33°50' E 132°17'13 9.2
2018-Feb-23 18:07N 33°53' E 132°32'2 9.0
2018-Feb-23 17:55N 33°54' E 132°34'4 8.8
2018-Feb-23 17:29N 33°55' E 132°38'4 7.9
2018-Feb-23 16:59N 33°57' E 132°42'4 8.1
2018-Feb-23 16:30N 34°01' E 132°45'87 8.0
2018-Feb-23 05:39N 34°23' E 134°26'1 9.2
2018-Feb-23 05:29N 34°22' E 134°28'4 9.2
2018-Feb-23 05:01N 34°19' E 134°32'5 9.5
2018-Feb-23 04:30N 34°16' E 134°36'5 9.4
2018-Feb-23 04:00N 34°13' E 134°40'5 9.8
2018-Feb-23 03:29N 34°09' E 134°44'4 9.1
2018-Feb-23 03:00N 34°06' E 134°48'7 8.9
2018-Feb-23 02:16N 34°01' E 134°53'2 9.1
2018-Feb-23 02:00N 33°60' E 134°55'5 9.3
2018-Feb-23 01:27N 33°56' E 134°60'101 5.9
2018-Feb-22 08:27N 34°40' E 136°50'4 9.6
2018-Feb-22 08:00N 34°44' E 136°47'5 9.3
2018-Feb-22 07:30N 34°48' E 136°45'5 9.4
2018-Feb-22 07:00N 34°52' E 136°43'5 9.2
2018-Feb-22 06:31N 34°57' E 136°41'2 4.2
2018-Feb-22 05:59N 34°59' E 136°40'0 0.0
2018-Feb-22 05:29N 34°59' E 136°40'0 0.0
2018-Feb-22 04:56N 34°59' E 136°40'0 0.0
2018-Feb-22 04:26N 34°59' E 136°40'0 0.0
2018-Feb-22 03:44N 34°59' E 136°40'0 0.0
2018-Feb-22 03:25N 34°59' E 136°40'2 4.1
2018-Feb-22 03:00N 34°58' E 136°42'5 9.0
2018-Feb-22 02:30N 34°54' E 136°45'5 9.2
2018-Feb-22 02:00N 34°49' E 136°46'5 9.2
2018-Feb-22 01:30N 34°45' E 136°48'17 9.0
2018-Feb-21 23:36N 34°33' E 137°03'2 9.4
2018-Feb-21 23:25N 34°33' E 137°05'4 9.4
2018-Feb-21 22:59N 34°34' E 137°10'7 9.3
2018-Feb-21 22:15N 34°35' E 137°18'48 8.6
2018-Feb-21 16:41N 34°34' E 138°16'5 8.6
2018-Feb-21 16:09N 34°34' E 138°21'1 8.6
2018-Feb-21 15:59N 34°34' E 138°23'6 8.4
2018-Feb-21 15:14N 34°34' E 138°31'2 7.7
2018-Feb-21 14:59N 34°34' E 138°33'4 7.9
2018-Feb-21 14:30N 34°35' E 138°38'6 7.1
2018-Feb-21 13:41N 34°35' E 138°45'2 7.7
2018-Feb-21 13:28N 34°35' E 138°47'4 7.5
2018-Feb-21 12:59N 34°35' E 138°51'3 6.2
2018-Feb-21 12:26N 34°35' E 138°56'4 7.5
2018-Feb-21 11:55N 34°37' E 138°60'4 9.1
2018-Feb-21 11:30N 34°39' E 139°03'7 9.6
2018-Feb-21 10:47N 34°44' E 139°09'3 9.0
2018-Feb-21 10:28N 34°46' E 139°12'4 8.5
2018-Feb-21 10:00N 34°49' E 139°15'4 8.3
2018-Feb-21 09:30N 34°52' E 139°19'5 7.9
2018-Feb-21 08:50N 34°56' E 139°23'5 7.9
2018-Feb-21 08:11N 34°59' E 139°28'3 8.1
2018-Feb-21 07:47N 35°01' E 139°30'2 8.2
2018-Feb-21 07:31N 35°03' E 139°33'4 8.5
2018-Feb-21 07:00N 35°05' E 139°37'5 8.9
2018-Feb-21 06:29N 35°08' E 139°42'4 9.2
2018-Feb-21 06:00N 35°11' E 139°45'510.1
2018-Feb-21 05:30N 35°16' E 139°46'510.2
2018-Feb-21 05:00N 35°20' E 139°42'510.0
2018-Feb-21 04:30N 35°25' E 139°43'4 8.2
2018-Feb-21 04:00N 35°29' E 139°43'0 0.3
2018-Feb-21 03:26N 35°29' E 139°42'0 0.0
2018-Feb-21 02:59N 35°29' E 139°42'0 0.0
2018-Feb-21 02:29N 35°29' E 139°42'0 0.0
2018-Feb-21 01:59N 35°29' E 139°42'0 0.0
2018-Feb-21 01:26N 35°29' E 139°42'0 0.0
2018-Feb-21 00:56N 35°29' E 139°42'0 0.0
2018-Feb-21 00:29N 35°29' E 139°42'0 0.0
2018-Feb-20 23:59N 35°29' E 139°42'0 0.1
2018-Feb-20 23:30N 35°29' E 139°43'2 3.7
2018-Feb-20 23:00N 35°27' E 139°43'1 2.0
2018-Feb-20 22:29N 35°26' E 139°43'0 0.0
2018-Feb-20 21:59N 35°26' E 139°43'0 0.1
2018-Feb-20 21:29N 35°26' E 139°43'0 0.0
2018-Feb-20 20:53N 35°26' E 139°43'0 0.0
2018-Feb-20 20:29N 35°26' E 139°43'0 0.0
2018-Feb-20 19:59N 35°26' E 139°43'0 0.0
2018-Feb-20 19:29N 35°26' E 139°43'0 0.0
2018-Feb-20 18:59N 35°26' E 139°43'0 0.0
2018-Feb-20 18:29N 35°26' E 139°43'0 0.0
2018-Feb-20 17:59N 35°26' E 139°43'0 0.0
2018-Feb-20 17:29N 35°26' E 139°43'0 0.0
2018-Feb-20 16:59N 35°26' E 139°43'0 0.0
2018-Feb-20 16:26N 35°26' E 139°43'0 0.0
2018-Feb-20 15:59N 35°26' E 139°43'0 0.0
2018-Feb-20 15:29N 35°26' E 139°43'0 0.0
2018-Feb-20 14:50N 35°26' E 139°43'0 0.0
2018-Feb-20 14:29N 35°26' E 139°43'0 0.0
2018-Feb-20 13:59N 35°26' E 139°43'0 0.1
2018-Feb-20 13:23N 35°26' E 139°43'0 0.0
2018-Feb-20 12:59N 35°26' E 139°43'0 0.0
2018-Feb-20 12:29N 35°26' E 139°43'0 0.0
2018-Feb-20 11:59N 35°26' E 139°43'0 0.0
2018-Feb-20 11:29N 35°26' E 139°43'0 0.0
2018-Feb-20 10:59N 35°26' E 139°43'0 0.0
2018-Feb-20 10:29N 35°26' E 139°43'0 0.0
2018-Feb-20 09:59N 35°26' E 139°43'0 0.1
2018-Feb-20 09:29N 35°26' E 139°43'0 0.3
2018-Feb-20 09:00N 35°26' E 139°43'3 7.0
2018-Feb-20 08:31N 35°24' E 139°46'510.3
2018-Feb-20 08:00N 35°19' E 139°44'510.0
2018-Feb-20 07:30N 35°15' E 139°47'510.1
2018-Feb-20 07:00N 35°10' E 139°46'7 9.8
2018-Feb-20 06:15N 35°04' E 139°41'3 9.6
2018-Feb-20 05:59N 35°02' E 139°38'5 9.7
2018-Feb-20 05:26N 34°59' E 139°33'13 9.7
2018-Feb-20 04:04N 34°50' E 139°21'1 9.5
2018-Feb-20 03:59N 34°49' E 139°21'5 9.8
2018-Feb-20 03:29N 34°46' E 139°16'810.2
2018-Feb-20 02:40N 34°41' E 139°08'2 9.4
2018-Feb-20 02:30N 34°40' E 139°07'6 8.7
2018-Feb-20 01:47N 34°37' E 139°00'4 8.8
2018-Feb-20 01:19N 34°35' E 138°56'11 9.1
2018-Feb-20 00:08N 34°35' E 138°43'3 9.8
2018-Feb-19 23:52N 34°35' E 138°40'4 9.7
2018-Feb-19 23:30N 34°35' E 138°35'5 9.8
2018-Feb-19 22:58N 34°35' E 138°29'5 9.5
2018-Feb-19 22:24N 34°34' E 138°22'4 9.6
2018-Feb-19 22:00N 34°34' E 138°18'72 9.7
2018-Feb-19 14:30N 34°40' E 136°50'510.5
2018-Feb-19 14:01N 34°45' E 136°47'510.0
2018-Feb-19 13:31N 34°49' E 136°45'510.3
2018-Feb-19 13:00N 34°54' E 136°46'510.0
2018-Feb-19 12:30N 34°59' E 136°49'5 9.8
2018-Feb-19 12:00N 35°03' E 136°52'0 0.3
2018-Feb-19 11:29N 35°03' E 136°52'0 0.0
2018-Feb-19 10:59N 35°03' E 136°52'0 0.0
2018-Feb-19 10:29N 35°03' E 136°52'0 0.0
2018-Feb-19 09:59N 35°03' E 136°52'0 0.0
2018-Feb-19 09:29N 35°03' E 136°52'0 0.0
2018-Feb-19 08:59N 35°03' E 136°52'0 0.0
2018-Feb-19 08:23N 35°03' E 136°52'0 0.0
2018-Feb-19 07:59N 35°03' E 136°52'0 0.0
2018-Feb-19 07:29N 35°03' E 136°52'0 0.0
2018-Feb-19 06:59N 35°03' E 136°52'0 0.0
2018-Feb-19 06:29N 35°03' E 136°52'0 0.0
2018-Feb-19 05:59N 35°03' E 136°52'0 0.0
2018-Feb-19 05:29N 35°03' E 136°52'3 5.5
2018-Feb-19 05:00N 35°01' E 136°50'3 5.8
2018-Feb-19 04:30N 34°59' E 136°48'0 0.0
2018-Feb-19 03:59N 34°59' E 136°48'0 0.0
2018-Feb-19 03:29N 34°59' E 136°48'0 0.0
2018-Feb-19 02:59N 34°59' E 136°48'0 0.0
2018-Feb-19 02:29N 34°59' E 136°48'0 0.0
2018-Feb-19 01:59N 34°59' E 136°48'0 0.0
2018-Feb-19 01:29N 34°59' E 136°48'0 0.0
2018-Feb-19 00:59N 34°59' E 136°48'0 0.0
2018-Feb-19 00:29N 34°59' E 136°48'0 0.0
2018-Feb-18 23:59N 34°59' E 136°48'0 0.0
2018-Feb-18 23:29N 34°59' E 136°48'0 0.0
2018-Feb-18 22:59N 34°59' E 136°48'0 0.0
2018-Feb-18 22:28N 34°59' E 136°48'3 6.7
2018-Feb-18 21:59N 34°56' E 136°46'4 9.1
2018-Feb-18 21:30N 34°52' E 136°46'5 9.2
2018-Feb-18 21:00N 34°47' E 136°47'5 9.1
2018-Feb-18 20:30N 34°43' E 136°49'  
2018-Feb-14 15:35N 30°59' E 122°32'1 9.1
2018-Feb-14 15:29N 30°59' E 122°31'5 8.6
2018-Feb-14 14:53N 31°00' E 122°25'3 8.2
2018-Feb-14 14:28N 31°01' E 122°22'8 7.6
2018-Feb-14 13:27N 31°03' E 122°13'5 6.9
2018-Feb-14 12:39N 31°03' E 122°06'3 7.1
2018-Feb-14 12:14N 31°04' E 122°03'2 7.7
2018-Feb-14 11:55N 31°05' E 122°00'4 8.6
2018-Feb-14 11:30N 31°07' E 121°57'3111.3
2018-Feb-14 08:48N 31°26' E 121°29'310.3
2018-Feb-14 08:30N 31°28' E 121°27'510.0
2018-Feb-14 08:01N 31°31' E 121°22'5 9.6
2018-Feb-14 07:28N 31°35' E 121°18'  

Dump ship's entire track history